Local Weather Observations
KPOV - Ravena/Portage, Ohio, USA
Distance from station: W 14mi, 23km
Updated: Thu, May-23-2024 7:35am EDT
Clear
Clear
 Wind from calm
Wind: Calm
Temperature: 61°F , 16°C
Dew Point: 55°F , 13°C
Humidity: 83%
Barometer: 29.99 inHg , 1015.6 hPa
Clouds: Clear
Visibility: 10 miles , 16 km
2024/05/23 11:35 KPOV 231135Z AUTO 00000KT 10SM CLR 16/13 A2999 RMK AO2 T01620134 PWINO
KYNG - Youngstown, Ohio, USA
Distance from station: ENE 16mi, 27km
Updated: Thu, May-23-2024 6:51am EDT
Few Clouds
Few Clouds
 Wind from calm
Wind: Calm
Temperature: 63°F , 17°C
Dew Point: 55°F , 13°C
Humidity: 77%
Barometer: 29.97 inHg , 1014.9 hPa
Clouds: Few Clouds
Visibility: 10 miles , 16 km
Cloud details: Few Clouds 6000 ft
Few Clouds 25000 ft
2024/05/23 10:51 KYNG 231051Z 00000KT 10SM FEW060 FEW250 17/13 A2997 RMK AO2 SLP142 T01670133 $
 
KAKR - Akron (fulton), Ohio, USA
Distance from station: WSW 28mi, 45km
Updated: Thu, May-23-2024 6:54am EDT
Mostly cloudy
Mostly cloudy
 Wind from calm
Wind: Calm
Temperature: 63°F , 17°C
Dew Point: 59°F , 15°C
Humidity: 88%
Barometer: 29.96 inHg , 1014.6 hPa
Clouds: Mostly cloudy
Visibility: 10 miles , 16 km
Cloud details: Mostly cloudy 6000 ft
2024/05/23 10:54 KAKR 231054Z AUTO 00000KT 10SM BKN060 17/15 A2996 RMK AO2 SLP138 T01720150
KUCP - New Castle Muni, Pennsylvania, USA
Distance from station: ESE 31mi, 50km
Updated: Thu, May-23-2024 6:56am EDT
Mostly cloudy
Mostly cloudy
 Wind from calm
Wind: Calm
Temperature: 61°F , 16°C
Dew Point: 61°F , 16°C
Humidity: 100%
Barometer: 29.97 inHg , 1014.9 hPa
Clouds: Mostly cloudy
Visibility: 10 miles , 16 km
Cloud details: Mostly cloudy 6500 ft
2024/05/23 10:56 KUCP 231056Z AUTO 00000KT 10SM BKN065 16/16 A2997 RMK AO2 SLP158 T01610161 PNO $
 
KCAK - Akron, Ohio, USA
Distance from station: SW 31mi, 51km
Updated: Thu, May-23-2024 6:51am EDT
Partly cloudy
Partly cloudy
 Wind from calm
Wind: Calm
Temperature: 61°F , 16°C
Dew Point: 57°F , 14°C
Humidity: 88%
Barometer: 29.97 inHg , 1014.9 hPa
Clouds: Partly cloudy
Visibility: 10 miles , 16 km
Cloud details: Partly cloudy 6000 ft
Partly cloudy 25000 ft
2024/05/23 10:51 KCAK 231051Z 00000KT 10SM SCT060 SCT250 16/14 A2997 RMK AO2 SLP141 T01610139